Time;durP1;ratioP1;P1;durP2;ratioP2;P2;SDS_P1;SDS_P2;PMS_P1;PMS_P2;Temp;Humidity;BMP_temperature;BMP_pressure;BME280_temperature;BME280_humidity;BME280_pressure;Samples;Min_cycle;Max_cycle;Signal;HPM_P1;HPM_P2
2022/12/02 07:29:15;;;;;;;;;12.25;11.25;;;;;17.60;46.92;101819.63;5070998;27;45455;-74
2022/12/02 07:31:43;;;;;;;;;12.50;11.00;;;;;18.02;47.72;101835.63;5064707;27;45419;-81
2022/12/02 07:34:10;;;;;;;;;14.00;10.75;;;;;18.55;48.19;101829.34;5066382;28;47429;-77
2022/12/02 07:36:35;;;;;;;;;11.75;11.75;;;;;19.14;47.66;101827.88;5065737;27;46061;-80
2022/12/02 07:39:00;;;;;;;;;12.75;10.25;;;;;19.70;47.57;101814.81;5070116;28;46124;-80
2022/12/02 07:41:26;;;;;;;;;10.25;10.25;;;;;20.21;48.11;101818.13;5069661;28;45557;-74
2022/12/02 07:43:53;;;;;;;;;15.25;13.25;;;;;20.70;47.16;101821.47;5069565;28;45536;-74
2022/12/02 07:46:19;;;;;;;;;10.00;9.25;;;;;21.07;46.87;101817.66;5068188;27;45521;-74
2022/12/02 07:48:44;;;;;;;;;9.75;9.75;;;;;21.47;46.56;101816.19;5069036;28;46813;-75
2022/12/02 07:51:09;;;;;;;;;15.25;12.25;;;;;21.77;46.37;101822.72;5065428;27;59853;-76
2022/12/02 07:53:35;;;;;;;;;12.25;12.25;;;;;22.01;46.01;101821.59;5071104;28;45624;-76
2022/12/02 07:56:00;;;;;;;;;9.25;9.25;;;;;22.27;46.25;101823.88;5067613;27;47040;-74
2022/12/02 07:58:25;;;;;;;;;13.00;10.75;;;;;22.51;46.22;101829.00;5065045;27;45445;-76
2022/12/02 08:00:50;;;;;;;;;12.50;10.25;;;;;22.73;45.83;101823.56;5069437;28;54728;-78
2022/12/02 08:03:16;;;;;;;;;13.50;9.00;;;;;22.92;45.71;101824.63;5067690;28;50087;-74
2022/12/02 08:05:41;;;;;;;;;12.33;12.33;;;;;23.07;45.43;101820.53;5070261;28;47263;-73
2022/12/02 08:08:06;;;;;;;;;13.25;9.75;;;;;23.21;45.40;101819.25;5070518;28;50027;-74
2022/12/02 08:10:32;;;;;;;;;11.75;11.25;;;;;23.35;44.96;101828.88;5064881;27;45609;-74
2022/12/02 08:12:57;;;;;;;;;10.75;8.75;;;;;23.48;45.22;101830.44;5068275;28;45410;-73
2022/12/02 08:15:22;;;;;;;;;11.33;10.67;;;;;23.58;44.84;101819.63;5067848;27;45486;-72
2022/12/02 08:17:47;;;;;;;;;11.67;9.33;;;;;23.67;44.87;101825.00;5066540;27;46135;-72
2022/12/02 08:20:13;;;;;;;;;8.00;7.67;;;;;23.76;44.93;101823.31;5069288;28;45444;-72
2022/12/02 08:22:38;;;;;;;;;14.33;10.67;;;;;23.84;44.50;101822.59;5065543;27;45857;-75
2022/12/02 08:25:04;;;;;;;;;11.67;11.00;;;;;23.92;44.65;101819.16;5066165;28;45403;-74
2022/12/02 08:27:30;;;;;;;;;8.00;8.00;;;;;24.03;44.46;101818.97;5073705;27;46182;-77
2022/12/02 08:29:55;;;;;;;;;10.67;9.67;;;;;24.12;44.44;101816.44;5090861;27;45552;-75
2022/12/02 08:32:21;;;;;;;;;10.67;10.67;;;;;24.18;44.13;101800.44;5090421;27;45821;-75
2022/12/02 08:34:46;;;;;;;;;8.00;6.00;;;;;24.28;43.96;101810.38;5087544;27;45516;-76
2022/12/02 08:37:13;;;;;;;;;14.33;10.00;;;;;24.32;44.05;101823.50;5085708;27;46003;-79
2022/12/02 08:39:38;;;;;;;;;4.67;4.00;;;;;24.36;43.98;101834.91;5095751;27;45517;-78
2022/12/02 08:42:04;;;;;;;;;11.00;9.33;;;;;24.36;43.64;101829.47;5054807;28;45389;-77
2022/12/02 08:44:30;;;;;;;;;12.00;11.33;;;;;24.37;43.59;101833.91;5077897;28;45323;-77
2022/12/02 08:46:55;;;;;;;;;11.33;9.67;;;;;24.38;43.57;101835.63;5076956;28;45494;-77
2022/12/02 08:49:21;;;;;;;;;8.67;8.33;;;;;24.35;43.43;101825.06;5073045;27;45403;-77
2022/12/02 08:51:46;;;;;;;;;11.33;10.00;;;;;24.38;43.30;101830.19;5075365;27;45416;-77
2022/12/02 08:54:14;;;;;;;;;8.67;8.67;;;;;24.43;43.53;101827.03;5077474;28;45426;-75
2022/12/02 08:56:40;;;;;;;;;10.67;7.33;;;;;24.55;43.34;101830.41;5075711;27;46236;-76
2022/12/02 08:59:05;;;;;;;;;10.00;9.33;;;;;24.65;43.35;101833.09;5072560;28;45629;-74
2022/12/02 09:01:30;;;;;;;;;11.00;8.33;;;;;24.76;43.28;101832.88;5073194;28;45790;-73
2022/12/02 09:03:55;;;;;;;;;10.67;8.67;;;;;24.84;43.22;101827.59;5075708;28;45742;-74
2022/12/02 09:06:21;;;;;;;;;11.00;8.67;;;;;24.91;42.99;101818.84;5077249;28;47724;-74
2022/12/02 09:08:46;;;;;;;;;10.00;9.00;;;;;24.94;42.93;101822.13;5076107;28;52186;-75
2022/12/02 09:11:11;;;;;;;;;8.33;8.33;;;;;24.96;42.73;101821.94;5076454;28;45680;-77
2022/12/02 09:13:37;;;;;;;;;8.67;8.67;;;;;25.06;42.79;101821.91;5077007;28;45403;-77
2022/12/02 09:16:02;;;;;;;;;12.33;8.00;;;;;25.13;42.75;101814.84;5074979;28;53239;-75
2022/12/02 09:18:28;;;;;;;;;9.00;9.00;;;;;25.19;42.57;101807.94;5075021;27;45381;-75
2022/12/02 09:20:53;;;;;;;;;9.00;9.00;;;;;25.26;42.78;101795.47;5067449;27;45484;-75
2022/12/02 09:23:18;;;;;;;;;10.33;10.33;;;;;25.34;42.58;101800.94;5075698;28;45526;-75
2022/12/02 09:25:43;;;;;;;;;9.67;9.00;;;;;25.37;42.75;101800.66;5076085;27;45791;-76
2022/12/02 09:28:09;;;;;;;;;9.67;9.33;;;;;25.43;42.45;101801.91;5074660;28;45471;-74
2022/12/02 09:30:34;;;;;;;;;7.67;7.67;;;;;25.44;42.09;101808.19;5075354;28;50769;-74
2022/12/02 09:33:00;;;;;;;;;8.00;8.00;;;;;25.41;41.91;101806.63;5071421;28;45612;-73
2022/12/02 09:35:26;;;;;;;;;13.00;11.33;;;;;25.43;42.14;101803.75;5076048;28;46333;-74
2022/12/02 09:37:51;;;;;;;;;9.00;8.00;;;;;25.42;42.18;101804.78;5075042;28;45403;-74
2022/12/02 09:40:16;;;;;;;;;11.00;8.00;;;;;25.43;42.18;101809.19;5075695;28;57975;-74
2022/12/02 09:42:43;;;;;;;;;10.00;8.67;;;;;25.43;41.85;101814.63;5071710;28;45722;-73
2022/12/02 09:45:09;;;;;;;;;7.00;7.00;;;;;25.39;42.30;101814.94;5076270;27;45545;-75
2022/12/02 09:47:34;;;;;;;;;8.33;8.00;;;;;25.42;42.43;101808.31;5046636;28;45546;-74
2022/12/02 09:49:59;;;;;;;;;8.33;8.33;;;;;25.47;41.90;101813.31;5076106;28;45449;-75
2022/12/02 09:52:26;;;;;;;;;11.00;10.33;;;;;25.51;42.12;101788.38;5053684;28;45468;-76
2022/12/02 09:54:54;;;;;;;;;11.00;11.00;;;;;25.57;42.03;101800.50;5076031;28;46422;-73
2022/12/02 09:57:24;;;;;;;;;13.67;9.67;;;;;25.59;41.56;101800.38;5074134;28;45335;-72
2022/12/02 09:59:51;;;;;;;;;10.33;10.33;;;;;25.50;41.48;101789.38;5064105;28;45755;-74
2022/12/02 10:02:27;;;;;;;;;11.67;10.00;;;;;25.39;41.53;101784.19;5072797;28;46164;-75
2022/12/02 10:04:59;;;;;;;;;10.00;10.00;;;;;25.34;41.09;101779.22;5075318;28;45720;-73
2022/12/02 10:07:24;;;;;;;;;13.33;12.33;;;;;25.36;41.46;101785.38;5075872;28;45333;-73
2022/12/02 10:09:50;;;;;;;;;11.00;9.00;;;;;25.39;41.35;101789.63;5074562;28;45487;-74
2022/12/02 10:12:15;;;;;;;;;7.00;7.00;;;;;25.39;41.12;101784.19;5072291;28;49062;-75
2022/12/02 10:14:47;;;;;;;;;11.33;11.33;;;;;25.41;41.45;101786.75;5071964;28;45995;-74
2022/12/02 10:17:17;;;;;;;;;10.00;10.00;;;;;25.38;40.95;101771.63;5071172;28;45416;-76
2022/12/02 10:19:45;;;;;;;;;13.00;11.67;;;;;25.45;41.13;101771.81;5073695;28;45499;-79
2022/12/02 10:22:19;;;;;;;;;15.67;12.00;;;;;25.44;41.14;101767.41;5073620;28;45755;-77
2022/12/02 10:24:45;;;;;;;;;12.33;12.33;;;;;25.44;40.94;101767.41;5075395;28;45662;-74
2022/12/02 10:27:31;;;;;;;;;10.33;10.33;;;;;25.44;41.14;101764.69;5056911;28;45522;-77
2022/12/02 10:30:24;;;;;;;;;12.00;12.00;;;;;25.44;41.03;101767.41;5073313;28;45453;-74
2022/12/02 10:33:00;;;;;;;;;11.67;11.67;;;;;25.43;40.69;101766.56;5073429;28;45431;-73
2022/12/02 10:35:27;;;;;;;;;9.00;8.67;;;;;25.45;40.95;101764.53;5058765;27;47192;-75
2022/12/02 10:37:52;;;;;;;;;13.00;12.00;;;;;25.48;40.75;101752.50;5074684;28;45726;-75
2022/12/02 10:40:22;;;;;;;;;11.33;9.33;;;;;25.55;41.17;101756.34;5074977;28;45377;-75
2022/12/02 10:43:07;;;;;;;;;10.00;10.00;;;;;25.52;40.62;101745.75;5073886;28;45474;-75
2022/12/02 10:45:32;;;;;;;;;11.33;10.67;;;;;25.59;41.16;101740.56;5055266;28;47621;-73
2022/12/02 10:48:16;;;;;;;;;8.67;8.67;;;;;25.72;41.21;101742.84;5074488;28;45414;-73
2022/12/02 10:50:43;;;;;;;;;13.67;11.33;;;;;25.76;41.04;101746.97;5076442;28;45399;-74
2022/12/02 10:53:15;;;;;;;;;9.33;8.33;;;;;25.78;40.81;101742.22;5064071;28;45329;-73
2022/12/02 10:55:41;;;;;;;;;11.67;11.67;;;;;25.77;40.77;101740.50;5074453;28;45713;-74
2022/12/02 10:58:30;;;;;;;;;9.33;9.33;;;;;25.72;40.44;101729.25;5070381;27;45468;-76
2022/12/02 11:00:57;;;;;;;;;11.67;10.00;;;;;25.68;40.24;101726.03;5071915;27;45483;-76
2022/12/02 11:03:23;;;;;;;;;9.33;9.33;;;;;25.65;40.73;101723.59;5071301;28;45645;-75
2022/12/02 11:05:49;;;;;;;;;9.33;9.00;;;;;25.68;40.39;101727.88;5073388;28;46823;-76
2022/12/02 11:08:20;;;;;;;;;11.00;8.67;;;;;25.71;40.64;101720.25;5075530;27;45478;-79
2022/12/02 11:10:48;;;;;;;;;12.00;10.00;;;;;25.75;40.85;101721.63;5074421;28;45408;-77
2022/12/02 11:13:16;;;;;;;;;15.67;12.00;;;;;25.79;40.76;101731.19;5074646;27;45416;-78
2022/12/02 11:15:47;;;;;;;;;15.33;11.00;;;;;25.79;40.32;101717.59;5074111;27;45540;-77
2022/12/02 11:18:24;;;;;;;;;9.00;9.00;;;;;25.78;40.62;101715.88;5071077;28;45446;-78
2022/12/02 11:21:13;;;;;;;;;9.67;9.67;;;;;25.77;40.68;101711.47;5070225;28;45439;-78
2022/12/02 11:23:38;;;;;;;;;11.67;9.33;;;;;25.77;40.75;101700.59;5062839;28;45455;-77
2022/12/02 11:26:03;;;;;;;;;13.00;12.33;;;;;25.79;40.47;101705.88;5075086;28;46074;-74
2022/12/02 11:28:29;;;;;;;;;9.67;9.67;;;;;25.83;40.61;101703.69;5066239;28;45439;-77
2022/12/02 11:31:09;;;;;;;;;13.00;12.33;;;;;25.88;40.85;101701.31;5068330;28;45423;-77
2022/12/02 11:33:54;;;;;;;;;12.33;11.67;;;;;25.95;40.57;101701.53;5073311;28;45477;-71
2022/12/02 11:36:25;;;;;;;;;10.33;10.33;;;;;26.01;40.72;101701.75;5072892;28;45423;-71
2022/12/02 11:38:50;;;;;;;;;11.00;11.00;;;;;26.05;40.69;101694.09;5052143;28;46042;-72
2022/12/02 11:41:24;;;;;;;;;13.00;11.67;;;;;26.08;40.57;101693.78;5046752;28;45946;-71
2022/12/02 11:44:29;;;;;;;;;13.00;13.00;;;;;26.07;40.34;101686.63;5070294;27;45423;-72
2022/12/02 11:47:01;;;;;;;;;12.67;11.33;;;;;25.99;40.64;101682.00;4981511;28;45461;-72
2022/12/02 11:49:29;;;;;;;;;15.00;11.33;;;;;26.03;40.15;101685.22;4987599;28;45450;-72
2022/12/02 11:52:15;;;;;;;;;11.67;10.67;;;;;25.97;40.04;101673.16;4978201;28;45748;-77
2022/12/02 11:54:54;;;;;;;;;14.00;12.67;;;;;25.95;40.37;101671.63;4990303;28;46540;-75
2022/12/02 11:57:27;;;;;;;;;11.00;11.00;;;;;25.95;40.08;101664.28;4987975;28;45665;-80
2022/12/02 11:59:53;;;;;;;;;12.67;12.67;;;;;25.94;39.71;101661.75;4983964;28;45746;-76
2022/12/02 12:02:21;;;;;;;;;11.67;11.67;;;;;25.90;40.17;101663.94;4992087;28;45623;-77
2022/12/02 12:05:01;;;;;;;;;12.67;10.67;;;;;25.89;40.18;101657.66;4984765;28;45344;-77
2022/12/02 12:07:44;;;;;;;;;12.00;10.67;;;;;25.91;40.07;101652.91;4987347;28;46046;-74
2022/12/02 12:10:31;;;;;;;;;18.00;13.33;;;;;25.94;39.77;101659.03;4986050;28;45493;-72
2022/12/02 12:13:16;;;;;;;;;9.00;8.33;;;;;25.95;40.26;101655.31;4989769;28;45536;-72
2022/12/02 12:16:20;;;;;;;;;11.67;11.67;;;;;26.00;39.87;101645.63;4991113;28;45499;-72
2022/12/02 12:18:47;;;;;;;;;15.00;14.67;;;;;26.04;39.78;101640.72;5029809;28;45522;-72
2022/12/02 12:21:35;;;;;;;;;10.33;9.67;;;;;26.04;39.78;101633.41;5032371;28;45519;-74
2022/12/02 12:24:25;;;;;;;;;9.67;9.00;;;;;26.01;40.08;101625.59;5034205;28;45507;-73
2022/12/02 12:26:55;;;;;;;;;14.67;13.00;;;;;25.96;40.01;101632.53;5030843;28;45458;-73
2022/12/02 12:29:32;;;;;;;;;16.00;13.67;;;;;25.87;39.74;101616.16;5029559;28;46093;-74
2022/12/02 12:31:57;;;;;;;;;14.33;13.33;;;;;25.79;39.63;101616.16;5032776;28;45886;-73
2022/12/02 12:34:23;;;;;;;;;15.00;14.00;;;;;25.74;39.92;101610.31;5036790;28;45444;-72
2022/12/02 12:36:48;;;;;;;;;11.67;11.67;;;;;25.73;39.45;101614.91;5018425;28;45452;-72
2022/12/02 12:39:15;;;;;;;;;15.00;14.33;;;;;25.73;39.39;101605.91;5033272;28;46680;-72
2022/12/02 12:41:40;;;;;;;;;17.33;13.00;;;;;25.71;39.24;101610.66;5032836;28;45520;-73
2022/12/02 12:44:06;;;;;;;;;13.67;11.00;;;;;25.72;39.34;101604.19;5032677;28;45527;-75
2022/12/02 12:46:31;;;;;;;;;13.00;12.33;;;;;25.74;39.74;101600.31;5031482;28;45507;-73
2022/12/02 12:48:57;;;;;;;;;16.00;13.33;;;;;25.86;39.65;101594.56;5033944;28;45530;-72
2022/12/02 12:51:23;;;;;;;;;14.67;13.67;;;;;25.94;39.46;101593.75;5030926;28;45507;-73
2022/12/02 12:53:49;;;;;;;;;13.33;11.67;;;;;25.97;39.67;101585.25;5047677;28;45521;-72
2022/12/02 12:56:14;;;;;;;;;12.00;12.00;;;;;25.97;39.06;101583.41;5074519;28;49971;-73
2022/12/02 12:58:39;;;;;;;;;13.00;12.33;;;;;26.01;38.96;101583.91;5074134;28;46466;-75
2022/12/02 13:01:05;;;;;;;;;13.00;11.00;;;;;26.07;39.21;101571.53;5074044;28;45403;-75
2022/12/02 13:03:30;;;;;;;;;16.33;14.00;;;;;26.13;39.31;101576.31;5071566;28;45510;-74
2022/12/02 13:05:55;;;;;;;;;14.00;12.67;;;;;26.12;39.45;101580.03;5071021;28;45974;-74
2022/12/02 13:08:21;;;;;;;;;13.33;12.00;;;;;26.13;39.28;101577.16;5073647;28;55758;-74
2022/12/02 13:10:46;;;;;;;;;13.33;13.33;;;;;26.11;39.21;101575.63;5082974;27;55407;-75
2022/12/02 13:13:12;;;;;;;;;15.67;14.00;;;;;26.10;39.51;101571.19;5076381;27;45400;-72
2022/12/02 13:15:37;;;;;;;;;11.33;11.33;;;;;26.03;38.99;101563.69;5076784;28;45598;-74
2022/12/02 13:18:03;;;;;;;;;13.33;11.33;;;;;26.03;38.99;101566.41;5074048;28;55726;-75
2022/12/02 13:20:28;;;;;;;;;16.67;16.00;;;;;25.98;39.09;101557.03;5075942;27;45517;-75
2022/12/02 13:22:54;;;;;;;;;14.00;12.00;;;;;25.98;39.31;101557.03;5076113;28;45579;-77
2022/12/02 13:25:19;;;;;;;;;12.00;10.33;;;;;25.97;39.26;101555.34;5074335;28;45595;-72
2022/12/02 13:27:44;;;;;;;;;12.33;11.00;;;;;25.97;39.44;101552.63;5074769;28;56926;-72
2022/12/02 13:30:14;;;;;;;;;12.67;12.67;;;;;25.98;39.32;101552.47;5075947;27;45416;-72
2022/12/02 13:32:40;;;;;;;;;13.00;10.00;;;;;26.01;39.46;101549.41;5075579;28;45481;-72
2022/12/02 13:35:06;;;;;;;;;11.67;11.67;;;;;26.03;39.11;101541.94;5075471;28;45330;-74
2022/12/02 13:37:31;;;;;;;;;12.67;12.33;;;;;26.10;39.31;101558.44;5073340;28;46680;-75
2022/12/02 13:39:57;;;;;;;;;13.33;11.67;;;;;26.12;39.05;101548.22;5074383;27;45346;-73
2022/12/02 13:42:22;;;;;;;;;13.00;10.33;;;;;26.08;39.54;101538.72;5055558;28;45513;-73
2022/12/02 13:44:47;;;;;;;;;11.33;10.67;;;;;26.13;38.88;101544.53;5073673;28;45444;-73
2022/12/02 13:47:13;;;;;;;;;13.67;13.33;;;;;26.16;39.42;101546.06;5075324;28;60303;-75
2022/12/02 13:49:38;;;;;;;;;14.67;14.00;;;;;26.20;39.47;101547.44;5074398;28;46423;-71
2022/12/02 13:52:04;;;;;;;;;13.33;11.67;;;;;26.20;39.42;101544.72;5076609;28;45426;-72
2022/12/02 13:54:29;;;;;;;;;10.00;10.00;;;;;26.20;38.89;101544.72;5075132;28;45284;-75
2022/12/02 13:56:55;;;;;;;;;16.67;13.00;;;;;26.16;39.15;101538.72;5058403;28;48270;-76
2022/12/02 13:59:20;;;;;;;;;15.67;14.00;;;;;26.14;39.20;101532.63;5074031;28;45451;-74
2022/12/02 14:01:45;;;;;;;;;12.67;12.33;;;;;26.14;39.18;101537.19;5071594;28;45307;-77
2022/12/02 14:04:11;;;;;;;;;13.67;13.33;;;;;26.14;38.93;101531.75;5073749;28;45305;-76
2022/12/02 14:06:36;;;;;;;;;13.67;13.00;;;;;26.16;39.37;101536.00;5074772;27;46539;-76
2022/12/02 14:09:01;;;;;;;;;13.67;11.67;;;;;26.13;39.09;101530.91;5070618;27;45363;-75
2022/12/02 14:11:27;;;;;;;;;12.00;12.00;;;;;26.15;39.00;101528.88;5076268;27;45374;-75
2022/12/02 14:13:52;;;;;;;;;10.67;10.00;;;;;26.15;38.74;101528.00;5073330;28;45502;-75
2022/12/02 14:16:18;;;;;;;;;15.67;15.33;;;;;26.18;38.85;101523.09;5073044;28;45405;-73
2022/12/02 14:18:44;;;;;;;;;13.00;10.00;;;;;26.21;38.92;101518.31;5071979;28;45651;-74
2022/12/02 14:21:09;;;;;;;;;14.67;12.33;;;;;26.23;38.57;101508.16;5075210;28;45992;-77
2022/12/02 14:23:34;;;;;;;;;17.67;13.00;;;;;26.24;38.92;101502.50;5059492;28;45665;-77
2022/12/02 14:25:59;;;;;;;;;14.00;12.33;;;;;26.23;39.21;101510.88;5073771;28;61103;-76
2022/12/02 14:28:25;;;;;;;;;12.33;11.00;;;;;26.22;38.91;101500.97;5074541;28;55569;-74
2022/12/02 14:30:50;;;;;;;;;12.67;12.67;;;;;26.23;39.11;101506.25;5075924;28;45367;-75
2022/12/02 14:33:15;;;;;;;;;14.00;12.67;;;;;26.23;39.06;101513.59;5074854;28;45483;-75
2022/12/02 14:35:42;;;;;;;;;13.33;12.00;;;;;26.21;38.90;101516.47;5075562;28;57252;-75
2022/12/02 14:38:07;;;;;;;;;17.00;15.00;;;;;26.20;39.17;101512.06;5073858;28;45506;-76
2022/12/02 14:40:33;;;;;;;;;11.33;11.00;;;;;26.14;39.08;101504.53;5075790;28;45428;-78
2022/12/02 14:42:59;;;;;;;;;11.00;10.00;;;;;26.17;39.00;101502.34;5073358;28;45462;-75
2022/12/02 14:45:25;;;;;;;;;13.00;12.33;;;;;26.18;38.59;101508.63;5073075;28;46166;-75
2022/12/02 14:47:50;;;;;;;;;14.00;13.67;;;;;26.18;38.72;101514.06;5075295;28;45453;-77
2022/12/02 14:50:15;;;;;;;;;16.00;14.33;;;;;26.14;38.65;101494.53;5073549;28;45402;-75
2022/12/02 14:52:41;;;;;;;;;11.67;11.67;;;;;26.17;38.93;101502.34;5073927;28;45293;-76
2022/12/02 14:55:07;;;;;;;;;13.00;11.67;;;;;26.17;39.40;101501.50;5073009;28;46303;-76
2022/12/02 14:57:32;;;;;;;;;14.67;13.00;;;;;26.17;38.77;101505.06;5075368;28;45393;-75
2022/12/02 14:59:57;;;;;;;;;13.67;12.67;;;;;26.21;39.33;101502.88;5068239;28;45641;-74
2022/12/02 15:02:23;;;;;;;;;12.67;11.00;;;;;26.22;38.72;101501.84;5073011;28;46428;-72
2022/12/02 15:04:48;;;;;;;;;14.67;14.00;;;;;26.26;38.90;101502.38;5071512;28;60923;-71
2022/12/02 15:07:13;;;;;;;;;15.67;12.67;;;;;26.25;39.11;101507.00;5073491;28;45546;-74
2022/12/02 15:09:39;;;;;;;;;12.33;12.33;;;;;26.24;38.83;101507.94;5072823;28;45409;-71
2022/12/02 15:12:04;;;;;;;;;11.00;9.67;;;;;26.23;39.03;101502.72;5073728;28;45849;-73
2022/12/02 15:14:29;;;;;;;;;11.00;10.67;;;;;26.25;38.82;101506.13;5074561;28;46413;-73
2022/12/02 15:16:55;;;;;;;;;16.67;11.33;;;;;26.28;38.92;101500.34;5068443;28;45636;-71
2022/12/02 15:19:20;;;;;;;;;13.33;10.67;;;;;26.31;38.80;101498.16;5072901;28;47568;-71
2022/12/02 15:21:45;;;;;;;;;12.67;12.67;;;;;26.39;38.81;101501.88;5073828;28;45399;-72
2022/12/02 15:24:11;;;;;;;;;15.33;13.33;;;;;26.45;38.86;101501.22;5073036;28;46429;-73
2022/12/02 15:26:36;;;;;;;;;14.33;13.00;;;;;26.50;39.10;101500.69;5072581;28;45375;-74
2022/12/02 15:29:01;;;;;;;;;15.33;12.33;;;;;26.52;38.80;101499.50;5056479;28;45426;-73
2022/12/02 15:31:27;;;;;;;;;12.00;9.67;;;;;26.51;39.11;101496.94;5072867;28;45442;-76
2022/12/02 15:33:52;;;;;;;;;11.00;11.00;;;;;26.47;38.54;101498.28;5066702;28;58012;-74
2022/12/02 15:36:17;;;;;;;;;14.67;12.00;;;;;26.48;38.85;101491.84;5071096;28;45674;-74
2022/12/02 15:38:43;;;;;;;;;13.67;11.00;;;;;26.49;38.97;101497.13;5074314;28;45447;-74
2022/12/02 15:41:08;;;;;;;;;11.67;11.67;;;;;26.50;38.81;101495.25;5069735;28;52749;-72
2022/12/02 15:43:34;;;;;;;;;13.67;13.67;;;;;26.53;39.11;101493.03;5075097;28;46822;-77
2022/12/02 15:45:59;;;;;;;;;15.00;13.33;;;;;26.54;38.69;101489.31;5069397;27;45484;-72
2022/12/02 15:48:24;;;;;;;;;17.67;14.33;;;;;26.52;38.12;101496.78;5074469;28;45317;-71
2022/12/02 15:50:50;;;;;;;;;14.33;14.33;;;;;26.42;38.73;101494.25;5071066;28;45514;-72
2022/12/02 15:53:15;;;;;;;;;13.67;12.67;;;;;26.27;37.97;101488.63;5075957;27;45507;-72
2022/12/02 15:55:40;;;;;;;;;17.00;15.67;;;;;26.15;38.07;101482.63;5075315;28;48299;-71
2022/12/02 15:58:05;;;;;;;;;16.00;14.67;;;;;26.05;37.94;101480.06;5068978;28;45377;-73
2022/12/02 16:00:31;;;;;;;;;12.67;12.67;;;;;26.07;38.28;101489.94;5073463;27;48340;-73
2022/12/02 16:02:56;;;;;;;;;15.67;15.00;;;;;26.05;38.08;101487.38;5077356;28;45428;-74
2022/12/02 16:05:22;;;;;;;;;14.67;13.33;;;;;26.08;38.20;101486.19;5070715;28;45542;-74
2022/12/02 16:07:47;;;;;;;;;13.00;13.00;;;;;26.08;38.48;101492.50;5066977;28;45362;-71
2022/12/02 16:10:13;;;;;;;;;14.00;12.67;;;;;26.12;38.45;101485.66;5069619;28;46111;-72
2022/12/02 16:12:38;;;;;;;;;17.67;13.67;;;;;26.16;38.09;101484.31;5068309;28;45976;-74
2022/12/02 16:15:04;;;;;;;;;11.67;11.00;;;;;26.21;38.36;101481.09;5067421;27;46908;-73
2022/12/02 16:17:30;;;;;;;;;14.00;11.67;;;;;26.23;38.43;101480.94;5051378;28;45483;-72
2022/12/02 16:19:55;;;;;;;;;18.33;13.33;;;;;26.29;38.21;101480.28;5065678;28;45471;-72
2022/12/02 16:22:21;;;;;;;;;15.00;12.67;;;;;26.32;38.44;101485.38;5072456;28;45455;-71
2022/12/02 16:24:46;;;;;;;;;14.67;13.67;;;;;26.35;38.37;101493.22;5067469;27;45480;-71
2022/12/02 16:27:11;;;;;;;;;17.67;14.00;;;;;26.35;37.88;101490.47;5070855;27;45523;-72
2022/12/02 16:29:37;;;;;;;;;16.00;12.33;;;;;26.37;38.40;101491.19;5064661;28;45502;-73
2022/12/02 16:32:02;;;;;;;;;16.33;15.00;;;;;26.39;38.17;101483.69;5068170;28;47366;-73
2022/12/02 16:34:28;;;;;;;;;14.67;13.67;;;;;26.42;38.23;101479.78;5072236;27;45808;-72
2022/12/02 16:36:53;;;;;;;;;14.00;13.67;;;;;26.47;37.90;101488.28;5063978;27;45541;-72
2022/12/02 16:39:19;;;;;;;;;16.33;13.00;;;;;26.48;37.86;101491.84;5068116;28;45455;-72
2022/12/02 16:41:44;;;;;;;;;13.67;12.00;;;;;26.47;38.40;101488.28;5067494;28;45583;-72
2022/12/02 16:44:09;;;;;;;;;11.00;9.67;;;;;26.46;38.04;101491.16;5067425;27;45434;-71
2022/12/02 16:46:36;;;;;;;;;13.33;13.33;;;;;26.46;37.93;101491.16;5064237;27;45321;-73
2022/12/02 16:49:02;;;;;;;;;19.33;14.33;;;;;26.48;38.05;101489.13;5072147;27;45447;-74
2022/12/02 16:51:27;;;;;;;;;12.67;12.67;;;;;26.49;37.98;101496.28;5078328;27;46138;-74
2022/12/02 16:53:52;;;;;;;;;17.33;11.67;;;;;26.47;37.76;101492.84;5060002;28;45470;-72
2022/12/02 16:56:18;;;;;;;;;13.67;12.67;;;;;26.48;37.81;101498.13;5076378;28;52261;-75
2022/12/02 16:58:43;;;;;;;;;17.67;13.33;;;;;26.49;37.83;101497.13;5056619;28;45463;-73
2022/12/02 17:01:08;;;;;;;;;15.33;13.67;;;;;26.50;38.01;101498.81;5075083;27;48856;-72
2022/12/02 17:03:33;;;;;;;;;10.67;10.33;;;;;26.52;37.92;101499.50;5073266;28;46645;-72
2022/12/02 17:05:59;;;;;;;;;15.00;14.00;;;;;26.54;38.31;101496.59;5075293;28;47671;-72
2022/12/02 17:08:24;;;;;;;;;11.33;11.33;;;;;26.53;38.25;101490.31;5062483;28;46204;-72
2022/12/02 17:10:50;;;;;;;;;12.33;12.33;;;;;26.53;38.05;101497.63;5076192;28;45497;-73
2022/12/02 17:13:15;;;;;;;;;17.00;13.67;;;;;26.55;37.75;101487.41;5076519;28;45605;-74
2022/12/02 17:15:40;;;;;;;;;14.00;12.33;;;;;26.54;37.65;101485.72;5076357;28;46014;-75
2022/12/02 17:18:06;;;;;;;;;11.33;9.67;;;;;26.56;37.95;101492.69;5061963;28;45665;-75
2022/12/02 17:20:31;;;;;;;;;14.33;13.33;;;;;26.57;38.05;101499.00;5076406;28;46632;-73
2022/12/02 17:22:56;;;;;;;;;13.67;12.00;;;;;26.55;38.01;101499.16;5076935;28;45365;-75
2022/12/02 17:25:22;;;;;;;;;10.33;10.00;;;;;26.56;37.50;101494.56;5076707;28;45419;-75
2022/12/02 17:27:47;;;;;;;;;14.00;12.67;;;;;26.56;37.90;101489.09;5076614;28;45419;-77
2022/12/02 17:30:13;;;;;;;;;9.33;9.33;;;;;26.56;37.89;101495.41;5076403;28;45388;-78
2022/12/02 17:32:38;;;;;;;;;12.00;11.33;;;;;26.56;37.85;101494.56;5077926;27;45340;-76
2022/12/02 17:35:04;;;;;;;;;10.00;10.00;;;;;26.55;37.97;101493.72;5076678;28;45325;-78
